CYOW/YOW METAR and TAF weather

Enter ICAO airport designator
Station Type Date Time Source
CYOW METAR 2020/07/10 18:00 UTC NOAA

CYOW 101800Z 18011G17KT 120V200 15SM SCT050 35/20 A2985 RMK CU3 SLP109 DENSITY ALT 2800FT


Station Type Date Time Source
CYOW Decoded METAR 2020/07/10 18:00 UTC NOAA

Ottawa Int'L. Ont., Canada (CYOW) 45-19N 075-40W 114M
Jul 10, 2020 - 02:00 PM EDT / 2020.07.10 1800 UTC
Wind: from the S (180 degrees) at 13 MPH (11 KT) gusting to 20 MPH (17 KT) (direction variable):0
Visibility: 15 mile(s):0
Sky conditions: partly cloudy
Temperature: 95 F (35 C)
Heat index: 99.5 F (37.5 C):1
Dew Point: 68 F (20 C)
Relative Humidity: 41%
Pressure (altimeter): 29.85 in. Hg (1010 hPa)
ob: CYOW 101800Z 18011G17KT 120V200 15SM SCT050 35/20 A2985 RMK CU3 SLP109 DENSITY ALT 2800FT
cycle: 18

Station Type Date Time Source
CYOW TAF 2020/07/10 18:42 UTC NOAA

TAF CYOW 101740Z 1018/1118 16010KT P6SM SCT060
FM102000 13008KT P6SM BKN060 PROB30 1020/1024 2SM TSRA BR BKN040CB
FM110200 17007KT P6SM SKC
FM110800 12008KT P6SM BKN040 OVC100
FM111000 05012KT P6SM -SHRA OVC020
FM111400 35012KT 6SM -RA BR SCT006 OVC012
FM111600 33008KT 3SM -RA BR OVC006
RMK NXT FCST BY 102100Z

Example: see airport list